Time;durP1;ratioP1;P1;durP2;ratioP2;P2;SDS_P1;SDS_P2;PMS_P1;PMS_P2;Temp;Humidity;BMP_temperature;BMP_pressure;BME280_temperature;BME280_humidity;BME280_pressure;Samples;Min_cycle;Max_cycle;Signal;HPM_P1;HPM_P2
2023/05/23 00:02:12;;;;;;;77.07;20.23;;;17.00;99.90;;;;;;4898040;29;20174;-86
2023/05/23 00:04:37;;;;;;;75.17;19.43;;;16.90;99.90;;;;;;4897982;29;20189;-86
2023/05/23 00:07:03;;;;;;;75.60;16.60;;;16.80;99.90;;;;;;4897717;29;20438;-85
2023/05/23 00:09:29;;;;;;;76.77;17.63;;;16.80;99.90;;;;;;4898213;29;20197;-85
2023/05/23 00:11:58;;;;;;;76.30;16.90;;;16.80;99.90;;;;;;4896293;29;20771;-85
2023/05/23 00:14:24;;;;;;;77.47;15.73;;;16.80;99.90;;;;;;4898123;29;20265;-84
2023/05/23 00:16:50;;;;;;;78.10;18.27;;;16.70;99.90;;;;;;4897760;29;20430;-85
2023/05/23 00:19:16;;;;;;;76.80;19.37;;;16.70;99.90;;;;;;4896614;29;20330;-85
2023/05/23 00:21:43;;;;;;;76.77;19.63;;;16.80;99.90;;;;;;4897121;29;20417;-85
2023/05/23 00:24:09;;;;;;;76.60;19.97;;;16.80;99.90;;;;;;4897012;29;20460;-85
2023/05/23 00:26:35;;;;;;;78.63;20.20;;;16.80;99.90;;;;;;4896536;29;20478;-84
2023/05/23 00:29:01;;;;;;;80.10;24.40;;;16.80;99.90;;;;;;4897069;29;20502;-85
2023/05/23 00:31:27;;;;;;;77.27;21.70;;;16.90;99.90;;;;;;4897506;29;20410;-85
2023/05/23 00:33:53;;;;;;;78.97;21.80;;;16.90;99.90;;;;;;4898081;29;20415;-84
2023/05/23 00:36:18;;;;;;;78.10;22.70;;;16.90;99.90;;;;;;4896269;29;20511;-85
2023/05/23 00:38:48;;;;;;;80.00;24.73;;;16.70;99.90;;;;;;4896592;29;20198;-85
2023/05/23 00:41:13;;;;;;;81.23;25.60;;;16.80;99.90;;;;;;4896080;29;20206;-85
2023/05/23 00:43:39;;;;;;;79.93;23.87;;;16.80;99.90;;;;;;4897568;29;20487;-85
2023/05/23 00:46:05;;;;;;;79.10;22.80;;;16.90;99.90;;;;;;4896945;29;20443;-85
2023/05/23 00:48:31;;;;;;;79.00;20.37;;;16.90;99.90;;;;;;4897969;29;20163;-85
2023/05/23 00:50:57;;;;;;;79.60;24.67;;;16.90;99.90;;;;;;4897500;29;20430;-85
2023/05/23 00:53:23;;;;;;;82.10;21.50;;;16.90;99.90;;;;;;4897190;29;20422;-85
2023/05/23 00:55:50;;;;;;;78.20;20.67;;;16.90;99.90;;;;;;4897305;29;20220;-85
2023/05/23 00:58:16;;;;;;;78.47;18.10;;;17.00;99.90;;;;;;4897904;29;20415;-85
2023/05/23 01:00:48;;;;;;;78.27;19.70;;;17.00;99.90;;;;;;4896858;29;20417;-85
2023/05/23 01:03:16;;;;;;;78.50;18.43;;;17.00;99.90;;;;;;4898416;29;20391;-85
2023/05/23 01:05:46;;;;;;;77.17;18.50;;;17.10;99.90;;;;;;4897828;29;20416;-85
2023/05/23 01:08:14;;;;;;;80.50;17.70;;;17.10;99.90;;;;;;4896658;29;20512;-85
2023/05/23 01:10:40;;;;;;;85.37;18.80;;;17.00;99.90;;;;;;4896756;29;20426;-85
2023/05/23 01:13:33;;;;;;;77.63;19.00;;;17.00;99.90;;;;;;4898207;29;20449;-85
2023/05/23 01:16:14;;;;;;;77.00;16.30;;;17.00;99.90;;;;;;4896167;29;20241;-85
2023/05/23 01:18:57;;;;;;;78.10;17.50;;;17.10;99.90;;;;;;4897716;29;20399;-86
2023/05/23 01:21:24;;;;;;;86.30;15.87;;;17.20;99.90;;;;;;4895325;29;20772;-85
2023/05/23 01:24:20;;;;;;;78.47;18.87;;;17.20;99.90;;;;;;4894946;29;20461;-85
2023/05/23 01:27:01;;;;;;;79.17;18.07;;;17.20;99.90;;;;;;4895676;29;20510;-85
2023/05/23 01:29:44;;;;;;;80.10;20.00;;;17.20;99.90;;;;;;4896562;29;20436;-85
2023/05/23 01:32:14;;;;;;;78.97;19.70;;;17.10;99.90;;;;;;4896346;29;20395;-85
2023/05/23 01:34:42;;;;;;;80.27;25.27;;;17.00;99.90;;;;;;4896892;29;20394;-85
2023/05/23 01:37:10;;;;;;;78.77;24.20;;;17.00;99.90;;;;;;4895611;29;20450;-85
2023/05/23 01:39:36;;;;;;;80.13;22.83;;;16.80;99.90;;;;;;4894807;29;20433;-85
2023/05/23 01:42:04;;;;;;;81.00;25.93;;;16.80;99.90;;;;;;4895422;29;20937;-86
2023/05/23 01:44:32;;;;;;;79.63;20.07;;;16.90;99.90;;;;;;4896160;29;20444;-86
2023/05/23 01:46:58;;;;;;;78.60;20.77;;;16.80;99.90;;;;;;4896306;29;20435;-85
2023/05/23 01:49:24;;;;;;;81.87;24.60;;;16.90;99.90;;;;;;4896277;29;20481;-85
2023/05/23 01:51:50;;;;;;;80.47;18.43;;;16.90;99.90;;;;;;4896332;29;20407;-85
2023/05/23 01:54:18;;;;;;;76.30;17.77;;;16.70;99.90;;;;;;4896283;29;20425;-86
2023/05/23 01:56:44;;;;;;;75.50;17.67;;;16.60;99.90;;;;;;4894402;29;20204;-85
2023/05/23 01:59:10;;;;;;;75.00;16.30;;;16.50;99.90;;;;;;4896007;29;20416;-85
2023/05/23 02:01:39;;;;;;;74.87;17.23;;;16.40;99.90;;;;;;4895122;29;20187;-85
2023/05/23 02:04:05;;;;;;;73.50;16.30;;;16.40;99.90;;;;;;4893720;29;20468;-85
2023/05/23 02:06:31;;;;;;;71.50;13.93;;;16.40;99.90;;;;;;4893769;29;20449;-86
2023/05/23 02:08:57;;;;;;;71.10;16.30;;;16.30;99.90;;;;;;4895397;29;20909;-86
2023/05/23 02:11:22;;;;;;;70.90;15.53;;;16.20;99.90;;;;;;4896572;29;20428;-85
2023/05/23 02:13:58;;;;;;;;;;;;;;;;;;;;;
2023/05/23 02:16:27;;;;;;;72.37;14.80;;;16.30;99.90;;;;;;4896044;29;20247;-86
2023/05/23 02:18:55;;;;;;;71.67;14.90;;;16.20;99.90;;;;;;4894393;29;20428;-86
2023/05/23 02:21:43;;;;;;;73.30;16.37;;;16.10;99.90;;;;;;4894110;29;20413;-86
2023/05/23 02:24:37;;;;;;;;;;;;;;;;;;;;;
2023/05/23 02:27:15;;;;;;;73.07;18.10;;;16.30;99.90;;;;;;4894917;29;20478;-85
2023/05/23 02:30:04;;;;;;;73.20;16.60;;;16.30;99.90;;;;;;4893639;29;20408;-86
2023/05/23 02:32:43;;;;;;;73.53;17.70;;;16.30;99.90;;;;;;4890201;29;20424;-86
2023/05/23 02:38:36;;;;;;;72.70;16.90;;;16.40;99.90;;;;;;4894724;29;20435;-84
2023/05/23 02:41:57;;;;;;;73.10;17.40;;;16.20;99.90;;;;;;4895774;29;20422;-86
2023/05/23 02:44:25;;;;;;;74.23;15.60;;;16.20;99.90;;;;;;4856658;29;20468;-87
2023/05/23 02:46:53;;;;;;;71.00;16.57;;;16.20;99.90;;;;;;4857081;29;20473;-86
2023/05/23 02:49:22;;;;;;;70.57;14.57;;;16.20;99.90;;;;;;4857080;29;20418;-86
2023/05/23 02:51:50;;;;;;;71.20;15.17;;;16.30;99.90;;;;;;4857170;29;20417;-86
2023/05/23 02:54:26;;;;;;;71.73;16.60;;;16.30;99.90;;;;;;4857874;29;20449;-86
2023/05/23 02:57:09;;;;;;;71.27;16.00;;;16.20;99.90;;;;;;4857538;29;20475;-86
2023/05/23 02:59:44;;;;;;;72.63;18.90;;;16.30;99.90;;;;;;4856988;29;20494;-86
2023/05/23 03:02:10;;;;;;;72.20;17.20;;;16.30;99.90;;;;;;4880986;29;20421;-86
2023/05/23 03:04:40;;;;;;;74.93;19.83;;;16.40;99.90;;;;;;4894967;29;20442;-85
2023/05/23 03:09:44;;;;;;;75.43;19.57;;;16.40;99.90;;;;;;4871311;29;20974;-85
2023/05/23 03:12:13;;;;;;;76.80;20.70;;;16.30;99.90;;;;;;4872207;29;20413;-85
2023/05/23 03:14:48;;;;;;;74.03;21.47;;;16.40;99.90;;;;;;4871710;29;20412;-85
2023/05/23 03:17:17;;;;;;;74.00;18.30;;;16.40;99.90;;;;;;4871683;29;20441;-85
2023/05/23 03:19:52;;;;;;;74.70;22.40;;;16.40;99.90;;;;;;4871468;29;20534;-85
2023/05/23 03:22:30;;;;;;;74.37;18.47;;;16.50;99.90;;;;;;4870593;29;20404;-85
2023/05/23 03:24:56;;;;;;;76.00;17.30;;;16.50;99.90;;;;;;4871050;29;20456;-85
2023/05/23 03:27:30;;;;;;;75.17;20.70;;;16.40;99.90;;;;;;4871716;29;20430;-85
2023/05/23 03:29:56;;;;;;;73.67;21.47;;;16.40;99.90;;;;;;4870393;29;20176;-85
2023/05/23 03:33:00;;;;;;;75.47;22.07;;;16.40;99.90;;;;;;4871620;29;20418;-86
2023/05/23 03:35:55;;;;;;;76.97;19.70;;;16.40;99.90;;;;;;4799944;29;20540;-86
2023/05/23 03:38:23;;;;;;;77.67;21.87;;;16.30;99.90;;;;;;4941550;23;20488;-81
2023/05/23 03:41:10;;;;;;;76.97;18.20;;;16.40;99.90;;;;;;4882181;29;20506;-81
2023/05/23 03:43:35;;;;;;;72.87;15.13;;;16.10;99.90;;;;;;4871090;29;20538;-80
2023/05/23 03:46:04;;;;;;;73.33;13.80;;;16.10;99.90;;;;;;4880480;29;20437;-81
2023/05/23 03:48:35;;;;;;;74.40;13.60;;;16.00;99.90;;;;;;4881301;29;20277;-81
2023/05/23 03:51:06;;;;;;;73.90;14.97;;;16.00;99.90;;;;;;4881633;29;20776;-81
2023/05/23 03:53:32;;;;;;;78.40;15.57;;;16.10;99.90;;;;;;4880240;29;20445;-80
2023/05/23 03:55:57;;;;;;;75.27;20.33;;;16.10;99.90;;;;;;4881458;29;20492;-81
2023/05/23 03:58:23;;;;;;;79.23;21.60;;;16.10;99.90;;;;;;4881756;29;20252;-81
2023/05/23 04:00:49;;;;;;;77.37;20.40;;;16.10;99.90;;;;;;4880319;29;20218;-81
2023/05/23 04:03:22;;;;;;;75.43;19.07;;;16.10;99.90;;;;;;4880300;29;20184;-81
2023/05/23 04:05:48;;;;;;;74.97;20.47;;;16.10;99.90;;;;;;4880461;29;20689;-81
2023/05/23 04:08:14;;;;;;;73.93;20.30;;;16.10;99.90;;;;;;4880551;29;20916;-81
2023/05/23 04:10:40;;;;;;;74.80;16.43;;;16.00;99.90;;;;;;4880016;29;20409;-81
2023/05/23 04:13:09;;;;;;;73.20;16.40;;;16.00;99.90;;;;;;4880429;29;20439;-81
2023/05/23 04:15:35;;;;;;;78.97;21.67;;;15.90;99.90;;;;;;4880164;29;20516;-81
2023/05/23 04:18:06;;;;;;;76.30;16.27;;;15.90;99.90;;;;;;4880513;29;20513;-81
2023/05/23 04:20:32;;;;;;;75.67;18.30;;;16.00;99.90;;;;;;4880321;29;20184;-81
2023/05/23 04:22:58;;;;;;;74.57;16.87;;;16.00;99.90;;;;;;4881418;29;20773;-81
2023/05/23 04:25:44;;;;;;;72.60;15.67;;;15.90;99.90;;;;;;4879880;29;20212;-81
2023/05/23 04:28:56;;;;;;;76.77;17.30;;;15.80;99.90;;;;;;4879894;29;20174;-80
2023/05/23 04:31:45;;;;;;;72.97;17.03;;;15.90;99.90;;;;;;4881315;29;20415;-81
2023/05/23 04:34:24;;;;;;;73.17;17.13;;;15.90;99.90;;;;;;4880646;29;20958;-81
2023/05/23 04:36:57;;;;;;;79.37;20.80;;;15.80;99.90;;;;;;4880154;29;20441;-81
2023/05/23 04:42:57;;;;;;;73.47;17.43;;;15.90;99.90;;;;;;4873052;29;20415;-82
2023/05/23 04:48:59;;;;;;;75.10;11.77;;;15.80;99.90;;;;;;4880210;29;20517;-81
2023/05/23 04:52:13;;;;;;;73.20;13.27;;;15.70;99.90;;;;;;4885087;29;20392;-80
2023/05/23 04:55:11;;;;;;;72.77;16.53;;;15.80;99.90;;;;;;4884567;29;20426;-81
2023/05/23 04:57:58;;;;;;;75.60;18.57;;;15.90;99.90;;;;;;4883370;29;20960;-80
2023/05/23 05:00:34;;;;;;;76.07;15.93;;;15.90;99.90;;;;;;4883795;29;20456;-81
2023/05/23 05:03:08;;;;;;;74.00;16.90;;;15.80;99.90;;;;;;4884729;29;20396;-81
2023/05/23 05:05:46;;;;;;;75.13;15.50;;;15.80;99.90;;;;;;4884144;29;20419;-80
2023/05/23 05:08:46;;;;;;;;;;;;;;;;;;;;;
2023/05/23 05:11:28;;;;;;;73.70;16.27;;;15.90;99.90;;;;;;4884697;29;20515;-82
2023/05/23 05:13:57;;;;;;;80.83;21.67;;;15.90;99.90;;;;;;4883574;29;20418;-81
2023/05/23 05:19:46;;;;;;;79.57;19.37;;;15.90;99.90;;;;;;4884384;29;20403;-80
2023/05/23 05:22:27;;;;;;;74.47;17.20;;;15.90;99.90;;;;;;4884554;29;20432;-81
2023/05/23 05:25:41;;;;;;;;;;;;;;;;;;;;;
2023/05/23 05:28:19;;;;;;;73.57;14.23;;;15.80;99.90;;;;;;4883383;29;20997;-81
2023/05/23 05:30:58;;;;;;;74.47;17.07;;;15.80;99.90;;;;;;4882825;29;20919;-81
2023/05/23 05:33:24;;;;;;;77.00;17.93;;;15.80;99.90;;;;;;4883430;29;20439;-81
2023/05/23 05:35:54;;;;;;;74.80;15.03;;;15.90;99.90;;;;;;4884200;29;20412;-81
2023/05/23 05:38:31;;;;;;;74.83;16.27;;;15.80;99.90;;;;;;4883144;29;20274;-80
2023/05/23 05:41:00;;;;;;;73.40;16.83;;;15.80;99.90;;;;;;4884330;29;20467;-80
2023/05/23 05:44:00;;;;;;;76.10;18.00;;;15.90;99.90;;;;;;4883228;29;20499;-81
2023/05/23 05:46:29;;;;;;;74.60;17.63;;;15.90;99.90;;;;;;4882940;29;20443;-80
2023/05/23 05:48:55;;;;;;;76.13;17.27;;;15.90;99.90;;;;;;4884238;29;20814;-81
2023/05/23 05:51:29;;;;;;;75.30;19.23;;;15.90;99.90;;;;;;4883847;29;20410;-81
2023/05/23 05:53:55;;;;;;;75.60;19.97;;;16.00;99.90;;;;;;4882419;29;20171;-80
2023/05/23 05:56:41;;;;;;;76.90;20.80;;;16.10;99.90;;;;;;4882318;29;20436;-82
2023/05/23 06:02:55;;;;;;;77.87;18.40;;;15.90;99.90;;;;;;4863018;29;20449;-81
2023/05/23 06:05:25;;;;;;;78.17;19.10;;;15.90;99.90;;;;;;4883636;29;20475;-81
2023/05/23 06:07:57;;;;;;;78.87;21.50;;;16.00;99.90;;;;;;4881847;29;20956;-81
2023/05/23 06:10:23;;;;;;;79.43;22.57;;;16.00;99.90;;;;;;4882113;29;20415;-81
2023/05/23 06:12:51;;;;;;;81.90;21.60;;;16.00;99.90;;;;;;4883317;29;20750;-80
2023/05/23 06:15:26;;;;;;;81.10;22.63;;;16.00;99.90;;;;;;4883328;29;20441;-81
2023/05/23 06:18:00;;;;;;;82.17;22.97;;;15.90;99.90;;;;;;4890102;23;20491;-81
2023/05/23 06:20:25;;;;;;;77.37;15.67;;;15.80;99.90;;;;;;4882942;29;20539;-80
2023/05/23 06:23:00;;;;;;;77.50;16.67;;;15.70;99.90;;;;;;4883363;29;20419;-82
2023/05/23 06:25:26;;;;;;;81.60;18.57;;;15.80;99.90;;;;;;4883635;29;20600;-82
2023/05/23 06:27:52;;;;;;;78.37;20.43;;;15.80;99.90;;;;;;4882181;29;20455;-81
2023/05/23 06:30:20;;;;;;;79.73;19.60;;;16.00;99.90;;;;;;4883457;29;20177;-81
2023/05/23 06:32:58;;;;;;;76.57;17.27;;;16.00;99.90;;;;;;4882190;29;20268;-81
2023/05/23 06:35:24;;;;;;;75.23;13.80;;;15.80;99.90;;;;;;4882173;29;20434;-80
2023/05/23 06:38:02;;;;;;;75.67;14.90;;;15.80;99.90;;;;;;4881927;29;20443;-80
2023/05/23 06:40:30;;;;;;;78.70;15.90;;;15.80;99.90;;;;;;4882924;29;20179;-81
2023/05/23 06:42:56;;;;;;;75.10;17.30;;;15.80;99.90;;;;;;4881379;29;20420;-82
2023/05/23 06:45:25;;;;;;;73.97;17.53;;;15.90;99.90;;;;;;4882124;29;20463;-81
2023/05/23 06:47:50;;;;;;;76.87;14.93;;;15.90;99.90;;;;;;4881631;29;20195;-81
2023/05/23 06:50:28;;;;;;;80.97;17.97;;;15.80;99.90;;;;;;4881728;29;20805;-81
2023/05/23 06:52:55;;;;;;;75.40;17.97;;;15.90;99.90;;;;;;4883121;29;20168;-83
2023/05/23 06:55:21;;;;;;;76.13;14.27;;;16.00;99.90;;;;;;4883036;29;20420;-81
2023/05/23 06:57:50;;;;;;;73.80;15.50;;;15.70;99.90;;;;;;4881463;29;20440;-81
2023/05/23 07:00:35;;;;;;;79.20;18.77;;;15.80;99.90;;;;;;4882922;29;20411;-81
2023/05/23 07:03:04;;;;;;;78.57;19.40;;;15.80;99.90;;;;;;4882427;29;20388;-81
2023/05/23 07:06:05;;;;;;;79.20;19.60;;;16.00;99.90;;;;;;4881810;29;20495;-81
2023/05/23 07:08:31;;;;;;;74.57;17.17;;;16.10;99.90;;;;;;4881801;29;20980;-80
2023/05/23 07:10:59;;;;;;;79.57;16.20;;;16.10;99.90;;;;;;4881338;29;20522;-82
2023/05/23 07:13:30;;;;;;;79.90;20.00;;;16.10;99.90;;;;;;4881245;29;20180;-81
2023/05/23 07:16:05;;;;;;;80.10;21.63;;;16.30;99.90;;;;;;4880693;29;20501;-81
2023/05/23 07:18:31;;;;;;;78.20;19.57;;;16.50;99.90;;;;;;4881570;29;20406;-81
2023/05/23 07:20:57;;;;;;;78.27;21.17;;;16.40;99.90;;;;;;4882540;29;20935;-82
2023/05/23 07:23:26;;;;;;;76.03;18.97;;;16.50;99.90;;;;;;4882267;29;20491;-81
2023/05/23 07:25:52;;;;;;;80.00;18.23;;;16.50;99.90;;;;;;4880740;29;20446;-82
2023/05/23 07:28:19;;;;;;;76.10;18.70;;;16.50;99.90;;;;;;4881133;29;20422;-81
2023/05/23 07:30:51;;;;;;;78.80;18.97;;;16.40;99.90;;;;;;4880878;29;20421;-81
2023/05/23 07:33:19;;;;;;;80.03;19.87;;;16.30;99.90;;;;;;4881908;29;20413;-82
2023/05/23 07:35:45;;;;;;;79.07;20.43;;;16.30;99.90;;;;;;4882230;29;20415;-80
2023/05/23 07:38:11;;;;;;;75.53;17.10;;;16.30;99.90;;;;;;4880913;29;20412;-81
2023/05/23 07:40:39;;;;;;;74.87;14.90;;;16.20;99.90;;;;;;4880878;29;20419;-80
2023/05/23 07:43:04;;;;;;;74.80;13.93;;;16.10;99.90;;;;;;4882033;29;20492;-80
2023/05/23 07:45:30;;;;;;;76.20;13.23;;;16.00;99.90;;;;;;4881736;29;20868;-81
2023/05/23 07:47:56;;;;;;;79.53;15.70;;;16.10;99.90;;;;;;4881911;29;20255;-80
2023/05/23 07:50:22;;;;;;;73.80;15.30;;;16.00;99.90;;;;;;4880915;29;20471;-81
2023/05/23 07:52:50;;;;;;;74.50;15.20;;;16.10;99.90;;;;;;4881643;29;20179;-81
2023/05/23 07:55:15;;;;;;;75.17;19.53;;;16.10;99.90;;;;;;4880410;29;20238;-79
2023/05/23 07:57:41;;;;;;;78.17;17.57;;;16.20;99.90;;;;;;4881630;29;20443;-81
2023/05/23 08:00:08;;;;;;;77.70;20.67;;;16.20;99.90;;;;;;4881635;29;20175;-81
2023/05/23 08:02:39;;;;;;;77.80;20.77;;;16.30;99.90;;;;;;4882217;29;20164;-81
2023/05/23 08:05:05;;;;;;;72.30;16.80;;;16.30;99.90;;;;;;4882009;29;20442;-81
2023/05/23 08:07:31;;;;;;;74.93;16.90;;;16.30;99.90;;;;;;4882100;29;20435;-81
2023/05/23 08:10:00;;;;;;;77.03;18.37;;;16.20;99.90;;;;;;4880879;29;20956;-83
2023/05/23 08:12:26;;;;;;;74.07;18.90;;;16.10;99.90;;;;;;4881814;29;20229;-80
2023/05/23 08:14:51;;;;;;;73.13;15.60;;;16.10;99.90;;;;;;4880040;29;20424;-81
2023/05/23 08:17:20;;;;;;;75.33;17.40;;;16.10;99.90;;;;;;4882034;29;20218;-83
2023/05/23 08:19:46;;;;;;;75.10;17.80;;;16.00;99.90;;;;;;4881850;29;20179;-80
2023/05/23 08:22:15;;;;;;;75.57;20.67;;;15.90;99.90;;;;;;4883885;29;20413;-81
2023/05/23 08:24:54;;;;;;;77.30;17.97;;;16.00;99.90;;;;;;4885195;29;20458;-81
2023/05/23 08:27:20;;;;;;;75.90;18.90;;;15.90;99.90;;;;;;4884306;29;20538;-81
2023/05/23 08:29:49;;;;;;;74.53;17.47;;;15.90;99.90;;;;;;4883738;29;20947;-83
2023/05/23 08:32:22;;;;;;;75.87;17.03;;;15.90;99.90;;;;;;4884964;29;20641;-81
2023/05/23 08:34:50;;;;;;;79.23;18.40;;;16.00;99.90;;;;;;4883661;29;20428;-81
2023/05/23 08:37:16;;;;;;;79.17;18.67;;;16.10;99.90;;;;;;4884960;29;20499;-81
2023/05/23 08:39:44;;;;;;;77.10;19.63;;;16.10;99.90;;;;;;4885043;29;20413;-81
2023/05/23 08:42:10;;;;;;;85.30;21.70;;;16.10;99.90;;;;;;4885306;29;20178;-84
2023/05/23 08:44:42;;;;;;;81.90;21.43;;;16.00;99.90;;;;;;4886279;29;20465;-84
2023/05/23 08:47:24;;;;;;;82.73;21.97;;;16.10;99.90;;;;;;4889159;29;20195;-85
2023/05/23 08:49:53;;;;;;;79.17;21.87;;;16.30;99.90;;;;;;4886356;29;20415;-83
2023/05/23 08:52:24;;;;;;;77.67;23.10;;;16.30;99.90;;;;;;4884674;29;20440;-83
2023/05/23 08:55:00;;;;;;;76.80;17.47;;;16.20;99.90;;;;;;4884139;29;20427;-82
2023/05/23 08:57:27;;;;;;;81.27;18.07;;;16.10;99.90;;;;;;4885344;29;20515;-82
2023/05/23 08:59:54;;;;;;;82.77;20.07;;;16.10;99.90;;;;;;4885134;29;20515;-82
2023/05/23 09:02:21;;;;;;;78.93;20.00;;;16.00;99.90;;;;;;4883611;29;20436;-83
2023/05/23 09:04:58;;;;;;;78.80;18.80;;;16.00;99.90;;;;;;4883454;29;20490;-83
2023/05/23 09:07:31;;;;;;;80.50;19.30;;;15.90;99.90;;;;;;4884982;29;20479;-82
2023/05/23 09:10:04;;;;;;;82.77;16.67;;;15.80;99.90;;;;;;4884916;29;20450;-82
2023/05/23 09:12:39;;;;;;;82.07;14.43;;;15.70;99.90;;;;;;4884810;29;20392;-82
2023/05/23 09:15:09;;;;;;;79.90;18.77;;;15.70;99.90;;;;;;4884773;29;20419;-82
2023/05/23 09:17:48;;;;;;;77.10;15.33;;;15.80;99.90;;;;;;4883773;29;20509;-82
2023/05/23 09:20:20;;;;;;;79.60;16.77;;;15.80;99.90;;;;;;4884777;29;20768;-82
2023/05/23 09:22:47;;;;;;;80.83;15.60;;;15.80;99.90;;;;;;4885331;29;20400;-82
2023/05/23 09:25:18;;;;;;;78.93;13.10;;;15.70;99.90;;;;;;4883208;29;20461;-82
2023/05/23 09:27:53;;;;;;;80.40;13.80;;;15.70;99.90;;;;;;4886002;29;20958;-82
2023/05/23 09:30:19;;;;;;;79.00;14.43;;;15.60;99.90;;;;;;4885230;29;20407;-82
2023/05/23 09:33:01;;;;;;;79.07;16.10;;;15.50;99.90;;;;;;4885595;29;20602;-82
2023/05/23 09:35:30;;;;;;;79.80;15.23;;;15.30;99.90;;;;;;4886480;29;20249;-82
2023/05/23 09:38:00;;;;;;;73.87;13.13;;;15.20;99.90;;;;;;4885794;29;20483;-82
2023/05/23 09:40:33;;;;;;;78.90;16.87;;;15.30;99.90;;;;;;4886742;29;20404;-82
2023/05/23 09:43:03;;;;;;;80.80;19.20;;;15.10;99.90;;;;;;4886415;29;20411;-82
2023/05/23 09:45:34;;;;;;;79.07;19.57;;;15.10;99.90;;;;;;4886099;29;20455;-82
2023/05/23 09:48:00;;;;;;;79.30;17.53;;;15.10;99.90;;;;;;4885492;29;20411;-82
2023/05/23 09:50:33;;;;;;;80.70;25.30;;;15.10;99.90;;;;;;4883950;29;20415;-83
2023/05/23 09:53:00;;;;;;;80.03;21.87;;;15.00;99.90;;;;;;4885053;29;20159;-82
2023/05/23 09:55:57;;;;;;;84.07;23.47;;;15.00;99.90;;;;;;4885332;29;20414;-83
2023/05/23 09:58:24;;;;;;;77.67;17.90;;;15.10;99.90;;;;;;4885540;29;20772;-82
2023/05/23 10:00:51;;;;;;;78.73;17.77;;;15.00;99.90;;;;;;4885805;29;20415;-82
2023/05/23 10:03:25;;;;;;;79.50;16.20;;;15.10;99.90;;;;;;4885269;29;20475;-82
2023/05/23 10:06:00;;;;;;;77.07;17.80;;;15.00;99.90;;;;;;4885274;29;20434;-82
2023/05/23 10:08:42;;;;;;;76.73;15.27;;;15.00;99.90;;;;;;4883934;29;20541;-81
2023/05/23 10:11:34;;;;;;;76.27;17.70;;;15.00;99.90;;;;;;4885817;29;20413;-83
2023/05/23 10:14:08;;;;;;;81.90;19.20;;;15.00;99.90;;;;;;4885311;29;20399;-85
2023/05/23 10:17:02;;;;;;;78.53;18.20;;;15.10;99.90;;;;;;4885404;29;20522;-83
2023/05/23 10:19:40;;;;;;;74.40;13.23;;;15.40;99.90;;;;;;4885367;29;20471;-82
2023/05/23 10:22:09;;;;;;;82.10;22.07;;;15.80;99.90;;;;;;4885526;29;20887;-85
2023/05/23 10:24:36;;;;;;;80.23;15.70;;;15.90;99.90;;;;;;4884563;29;20459;-84
2023/05/23 10:27:02;;;;;;;78.43;17.10;;;15.90;99.90;;;;;;4886938;29;20439;-84
2023/05/23 10:29:29;;;;;;;75.00;14.97;;;15.80;99.90;;;;;;4884510;29;20776;-83
2023/05/23 10:32:01;;;;;;;74.00;17.27;;;15.90;99.90;;;;;;4884331;29;20419;-84
2023/05/23 10:34:46;;;;;;;75.27;16.17;;;16.20;99.90;;;;;;4884674;29;20920;-82
2023/05/23 10:37:23;;;;;;;75.60;11.77;;;16.50;99.90;;;;;;4886501;29;20435;-82
2023/05/23 10:40:01;;;;;;;77.10;13.30;;;16.80;92.80;;;;;;4885469;29;20392;-82
2023/05/23 10:42:52;;;;;;;76.10;12.10;;;16.90;95.20;;;;;;4884196;29;20508;-82
2023/05/23 10:45:24;;;;;;;75.60;13.07;;;17.00;81.80;;;;;;4883448;29;20864;-82
2023/05/23 10:47:53;;;;;;;71.47;12.07;;;16.90;81.70;;;;;;4885231;29;20450;-82
2023/05/23 10:50:40;;;;;;;77.17;10.90;;;16.90;81.50;;;;;;4883619;29;20776;-83
2023/05/23 10:53:10;;;;;;;75.97;9.27;;;17.00;77.90;;;;;;4884244;29;20431;-84
2023/05/23 10:55:36;;;;;;;74.10;11.00;;;16.70;76.70;;;;;;4884812;29;20932;-84
2023/05/23 10:58:16;;;;;;;75.00;11.13;;;16.80;92.60;;;;;;4884891;29;20427;-83
2023/05/23 11:01:01;;;;;;;72.50;8.53;;;17.20;74.90;;;;;;4883715;29;20403;-83
2023/05/23 11:03:44;;;;;;;72.90;7.80;;;17.40;66.70;;;;;;4883115;29;20435;-84
2023/05/23 11:06:37;;;;;;;73.90;8.80;;;17.60;51.30;;;;;;4884850;29;20776;-83
2023/05/23 11:09:08;;;;;;;72.90;8.17;;;17.40;39.90;;;;;;4883850;29;20423;-83
2023/05/23 11:11:58;;;;;;;75.47;8.60;;;17.30;44.40;;;;;;4884951;29;20422;-82
2023/05/23 11:14:30;;;;;;;73.47;7.90;;;17.00;49.70;;;;;;4884842;29;20399;-82
2023/05/23 11:16:58;;;;;;;72.53;8.57;;;16.90;48.80;;;;;;4883938;29;20456;-83
2023/05/23 11:19:27;;;;;;;72.90;7.47;;;16.80;42.00;;;;;;4883038;29;20485;-83
2023/05/23 11:22:00;;;;;;;71.60;8.70;;;16.80;44.10;;;;;;4884707;29;20422;-83
2023/05/23 11:24:53;;;;;;;72.00;8.63;;;16.60;48.00;;;;;;4883256;29;20457;-83
2023/05/23 11:27:28;;;;;;;78.83;9.13;;;16.20;58.10;;;;;;4876565;29;20460;-83
2023/05/23 11:30:01;;;;;;;71.50;8.03;;;16.30;69.20;;;;;;4884115;29;20441;-82
2023/05/23 11:32:29;;;;;;;70.57;8.17;;;16.40;61.90;;;;;;4884102;29;20490;-83
2023/05/23 11:34:54;;;;;;;78.87;9.87;;;16.20;66.50;;;;;;4883632;29;20423;-83
2023/05/23 11:37:22;;;;;;;71.47;7.33;;;16.30;59.90;;;;;;4884238;29;20438;-83
2023/05/23 11:39:48;;;;;;;73.90;7.40;;;16.10;52.90;;;;;;4882344;29;20415;-83
2023/05/23 11:42:14;;;;;;;71.87;7.40;;;16.10;57.00;;;;;;4884433;29;20423;-82
2023/05/23 11:44:40;;;;;;;71.97;7.23;;;16.30;51.80;;;;;;4882620;29;20453;-82
2023/05/23 11:47:07;;;;;;;77.73;8.80;;;16.60;50.40;;;;;;4882082;29;20208;-83
2023/05/23 11:49:37;;;;;;;71.70;7.57;;;16.60;38.80;;;;;;4882679;29;20433;-82
2023/05/23 11:52:15;;;;;;;69.10;7.70;;;16.70;38.90;;;;;;4883748;29;20412;-82
2023/05/23 11:54:44;;;;;;;68.70;7.27;;;16.80;32.00;;;;;;4882880;29;20401;-83
2023/05/23 11:57:12;;;;;;;74.07;11.50;;;16.90;30.50;;;;;;4887569;29;20442;-82
2023/05/23 11:59:41;;;;;;;72.97;8.43;;;17.30;26.60;;;;;;4888148;29;20798;-83
2023/05/23 12:02:10;;;;;;;70.10;7.67;;;17.50;10.10;;;;;;4888125;29;20411;-82
2023/05/23 12:04:39;;;;;;;71.17;7.07;;;17.70;1.00;;;;;;4888288;29;20449;-83
2023/05/23 12:10:28;;;;;;;74.63;7.63;;;18.80;1.00;;;;;;4856444;29;20821;-83
2023/05/23 12:12:54;;;;;;;78.37;6.90;;;19.20;1.00;;;;;;4887773;29;20451;-83
2023/05/23 12:15:29;;;;;;;71.77;7.93;;;19.50;1.00;;;;;;4888048;29;20414;-83
2023/05/23 12:18:34;;;;;;;73.57;8.67;;;19.20;1.00;;;;;;4888282;29;20465;-83
2023/05/23 12:21:09;;;;;;;68.70;7.47;;;19.10;1.00;;;;;;4886719;29;20435;-83
2023/05/23 12:23:38;;;;;;;69.70;7.90;;;19.00;1.00;;;;;;4885915;29;20521;-83
2023/05/23 12:26:11;;;;;;;73.17;7.63;;;18.60;1.00;;;;;;4887238;29;20808;-82
2023/05/23 12:28:45;;;;;;;76.53;7.53;;;18.40;1.00;;;;;;4886395;29;20414;-83
2023/05/23 12:31:20;;;;;;;70.47;6.93;;;18.20;1.00;;;;;;4888422;29;20805;-82
2023/05/23 12:33:51;;;;;;;77.97;7.87;;;18.10;1.00;;;;;;4886905;29;20414;-84
2023/05/23 12:36:30;;;;;;;70.37;8.07;;;18.20;1.00;;;;;;4887431;29;20434;-84
2023/05/23 12:39:02;;;;;;;74.40;7.80;;;18.00;1.00;;;;;;4887288;29;20415;-82
2023/05/23 12:41:37;;;;;;;73.77;8.63;;;17.80;1.00;;;;;;4886105;29;20415;-82
2023/05/23 12:44:13;;;;;;;;;;;;;;;;;;;;;
2023/05/23 12:46:40;;;;;;;72.17;7.40;;;17.70;1.00;;;;;;4887227;29;20437;-83
2023/05/23 12:49:08;;;;;;;70.80;7.37;;;17.40;1.00;;;;;;4886969;29;20433;-82
2023/05/23 12:51:37;;;;;;;69.27;6.20;;;17.50;1.00;;;;;;4885283;29;20416;-83
2023/05/23 12:54:05;;;;;;;70.20;6.70;;;17.40;1.00;;;;;;4886339;29;20426;-83
2023/05/23 12:56:31;;;;;;;81.80;8.10;;;17.70;1.00;;;;;;4885519;29;20859;-82
2023/05/23 12:59:08;;;;;;;70.00;7.23;;;17.80;1.00;;;;;;4885425;29;20426;-83
2023/05/23 13:01:40;;;;;;;72.57;7.40;;;17.80;1.00;;;;;;4886785;29;20259;-82
2023/05/23 13:04:13;;;;;;;69.87;6.40;;;17.60;1.00;;;;;;4886457;29;20447;-82
2023/05/23 13:06:43;;;;;;;77.10;7.30;;;17.40;1.00;;;;;;4885427;29;20442;-82
2023/05/23 13:09:12;;;;;;;67.97;7.00;;;17.60;1.00;;;;;;4886406;29;20513;-84
2023/05/23 13:11:43;;;;;;;73.73;6.67;;;17.70;1.00;;;;;;4886220;29;20401;-82
2023/05/23 13:14:18;;;;;;;67.97;6.70;;;17.60;1.00;;;;;;4885237;29;20411;-82
2023/05/23 13:16:44;;;;;;;68.37;7.60;;;17.60;1.00;;;;;;4886227;29;20446;-84
2023/05/23 13:19:11;;;;;;;68.47;6.60;;;17.70;1.00;;;;;;4886310;29;20417;-82
2023/05/23 13:21:41;;;;;;;71.43;7.13;;;17.80;1.00;;;;;;4885656;29;20241;-83
2023/05/23 13:24:07;;;;;;;67.73;5.93;;;17.60;1.00;;;;;;4886285;29;20442;-83
2023/05/23 13:26:39;;;;;;;72.17;6.03;;;17.40;1.00;;;;;;4886112;29;20431;-83